Delta Virtual Airport Information Service

Kyiv Boryspil International Airport

ICAO: UKBB Country: Ukraine
Latitude: 50.345 Longitude: 30.8947
Latest Arrival : DAC1000 (LOWW-UKBB) Latest Departure : ELY2652 (1) (UKBB-LLBG)


WX CaptureLIVE
Data provided by noaa.gov | Fetched at 15:04:35

METAR : UKBB 281930Z 06003MPS CAVOK 13/09 Q1020 R36R/CLRD// NOSIG

TAF : UKBB 281701Z 2818/2918 10003G08MPS 9999 SCT030 TEMPO 2822/2905 2000 BR BKN006 BECMG 2908/2910 09006G12MPS BKN030 TEMPO 2912/2918 12009G14MPS 2100 -SHRA BKN010 BKN015CB


Runway Data for UKBB
Data provided by openaviationdata.com

Runway ID Mag Var Hdg Length Elevation Surface ILS Freq ILS Id ILS Slope
18L 5 177° 13078 ft 427 ft Concrete 111.3 IBI 3
18R 5 177° 11456 ft 427 ft Concrete 108.9 IKB 3
36L 5 357° 11456 ft 427 ft Concrete 110.5 IKE 3
36R 5 357° 13078 ft 427 ft Concrete 109.7 INO 3

Kyiv Boryspil International Airport, Ukraine
Use only for reference purposes



Not for navigational purposes.